Hauptseite
METAR-TAF:

METAR-TAF

Flughäfen :

Chinggis Khaan International Airport

Ulaanbaatar, Mongolei

Breite: 47-55N, Länge: 106-52E, Höhe: 1306 m

Beobachtung

Neuester Wetterbericht von vor 53 Minuten, um 18:00 UTC
Windstille
Temperatur 9°C
Luftfeuchtigkeit 87%
Luftdruck 1017 hPa
Sichtweite 10 km oder mehr
keine Wolken unter 1500 m und keine Kumulonimbus oder Gewitterwolken

METAR: ZMUB 231800Z 00000MPS CAVOK 09/07 Q1017 NOSIG RMK QFE655.2 88

Zeit: 02:53 (18:53 UTC)

Prognose

Neuester Wetterbericht von vor 2 Stunden und 4 Minuten, um 16:49 UTC
Gültige Prognose vom 23 um 18 UTC bis 24 um 24 UTC
Wind 4 kt aus unterschiedlichen Richtungen
Sichtweite 10 km oder mehr
Leicht bewölkt in der Höhe von 3000 ft, Kumulonimbus.
Aufgelockert bewölkt in der Höhe von 3300 ft

TAF: ZMUB 231649Z 2318/2424 VRB02MPS 9999 FEW030CB SCT033 TN06/2321Z TX25/2407Z

Wetterbeobachtungen und Prognosen von mehr als 4000 Flughäfen (METAR und TAF Bericht).

Die verfügbaren Stationen werden durch gelbe und rote Markierungen auf der Karte dargestellt.

Führen Sie die Maus auf sie, um den Namen der Station zu sehen.

Darauf klicken, um die Beobachtung von Wetterbeobachtungen und Prognosen zu sehen.

Um die Karte zu ändern : klicken Sie auf den grünen Tasten mit einem schwarzen Kreuz Zum Vergrößern, auf den grünen Button mit einem Gedankenstrich zu verkleinern, oder auf die grünen Pfeile für benachbarte Karten.


METAR-TAF: